sensor_id;sensor_type;location;lat;lon;timestamp;P1;durP1;ratioP1;P2;durP2;ratioP2
61806;SDS011;47726;52.766;6.606;2022-09-09T00:01:09;8.73;;;5.15;;
61806;SDS011;47726;52.766;6.606;2022-09-09T00:04:06;8.50;;;4.80;;
61806;SDS011;47726;52.766;6.606;2022-09-09T00:09:25;10.27;;;4.85;;
61806;SDS011;47726;52.766;6.606;2022-09-09T00:14:54;7.00;;;4.63;;
61806;SDS011;47726;52.766;6.606;2022-09-09T00:20:19;10.00;;;4.50;;
61806;SDS011;47726;52.766;6.606;2022-09-09T00:22:54;10.15;;;5.00;;
61806;SDS011;47726;52.766;6.606;2022-09-09T00:25:32;9.57;;;5.00;;
61806;SDS011;47726;52.766;6.606;2022-09-09T00:28:10;9.10;;;4.88;;
61806;SDS011;47726;52.766;6.606;2022-09-09T00:30:42;10.98;;;5.00;;
61806;SDS011;47726;52.766;6.606;2022-09-09T00:33:10;8.90;;;4.95;;
61806;SDS011;47726;52.766;6.606;2022-09-09T00:35:41;8.30;;;5.20;;
61806;SDS011;47726;52.766;6.606;2022-09-09T00:38:52;6.90;;;4.80;;
61806;SDS011;47726;52.766;6.606;2022-09-09T00:41:10;6.88;;;4.68;;
61806;SDS011;47726;52.766;6.606;2022-09-09T00:43:42;8.80;;;5.10;;
61806;SDS011;47726;52.766;6.606;2022-09-09T00:46:18;9.68;;;5.07;;
61806;SDS011;47726;52.766;6.606;2022-09-09T00:49:07;7.45;;;5.18;;
61806;SDS011;47726;52.766;6.606;2022-09-09T00:57:19;10.77;;;5.18;;
61806;SDS011;47726;52.766;6.606;2022-09-09T01:02:56;9.73;;;4.70;;
61806;SDS011;47726;52.766;6.606;2022-09-09T01:05:46;8.88;;;4.88;;
61806;SDS011;47726;52.766;6.606;2022-09-09T01:11:17;11.60;;;5.30;;
61806;SDS011;47726;52.766;6.606;2022-09-09T01:13:47;11.00;;;5.80;;
61806;SDS011;47726;52.766;6.606;2022-09-09T01:16:34;10.25;;;5.55;;
61806;SDS011;47726;52.766;6.606;2022-09-09T01:19:00;12.32;;;6.00;;
61806;SDS011;47726;52.766;6.606;2022-09-09T01:21:44;9.55;;;5.88;;
61806;SDS011;47726;52.766;6.606;2022-09-09T01:24:35;7.90;;;5.20;;
61806;SDS011;47726;52.766;6.606;2022-09-09T01:27:06;9.70;;;5.30;;
61806;SDS011;47726;52.766;6.606;2022-09-09T01:29:32;8.52;;;5.07;;
61806;SDS011;47726;52.766;6.606;2022-09-09T01:31:59;8.52;;;5.22;;
61806;SDS011;47726;52.766;6.606;2022-09-09T01:34:29;7.85;;;4.72;;
61806;SDS011;47726;52.766;6.606;2022-09-09T01:39:33;9.93;;;4.88;;
61806;SDS011;47726;52.766;6.606;2022-09-09T01:42:00;7.20;;;4.68;;
61806;SDS011;47726;52.766;6.606;2022-09-09T01:44:27;7.75;;;4.47;;
61806;SDS011;47726;52.766;6.606;2022-09-09T01:46:54;9.95;;;4.85;;
61806;SDS011;47726;52.766;6.606;2022-09-09T01:49:19;9.07;;;4.53;;
61806;SDS011;47726;52.766;6.606;2022-09-09T01:51:46;10.45;;;5.03;;
61806;SDS011;47726;52.766;6.606;2022-09-09T01:54:18;8.25;;;4.88;;
61806;SDS011;47726;52.766;6.606;2022-09-09T01:57:02;8.55;;;5.20;;
61806;SDS011;47726;52.766;6.606;2022-09-09T02:05:36;8.93;;;5.03;;
61806;SDS011;47726;52.766;6.606;2022-09-09T02:08:08;10.45;;;6.20;;
61806;SDS011;47726;52.766;6.606;2022-09-09T02:13:12;11.38;;;6.22;;
61806;SDS011;47726;52.766;6.606;2022-09-09T02:18:30;10.25;;;6.20;;
61806;SDS011;47726;52.766;6.606;2022-09-09T02:21:11;8.25;;;5.55;;
61806;SDS011;47726;52.766;6.606;2022-09-09T02:23:39;8.80;;;5.65;;
61806;SDS011;47726;52.766;6.606;2022-09-09T02:26:07;10.43;;;7.13;;
61806;SDS011;47726;52.766;6.606;2022-09-09T02:28:35;11.88;;;6.88;;
61806;SDS011;47726;52.766;6.606;2022-09-09T02:31:02;9.82;;;6.80;;
61806;SDS011;47726;52.766;6.606;2022-09-09T02:33:30;10.02;;;6.40;;
61806;SDS011;47726;52.766;6.606;2022-09-09T02:36:02;8.25;;;5.90;;
61806;SDS011;47726;52.766;6.606;2022-09-09T02:38:33;10.65;;;6.30;;
61806;SDS011;47726;52.766;6.606;2022-09-09T02:41:01;10.93;;;6.88;;
61806;SDS011;47726;52.766;6.606;2022-09-09T02:43:30;10.23;;;7.28;;
61806;SDS011;47726;52.766;6.606;2022-09-09T02:46:01;11.57;;;6.78;;
61806;SDS011;47726;52.766;6.606;2022-09-09T02:51:30;9.93;;;6.60;;
61806;SDS011;47726;52.766;6.606;2022-09-09T02:56:43;11.35;;;7.15;;
61806;SDS011;47726;52.766;6.606;2022-09-09T02:59:16;9.45;;;6.40;;
61806;SDS011;47726;52.766;6.606;2022-09-09T03:01:43;9.85;;;6.20;;
61806;SDS011;47726;52.766;6.606;2022-09-09T03:04:09;10.20;;;6.25;;
61806;SDS011;47726;52.766;6.606;2022-09-09T03:06:34;9.35;;;6.18;;
61806;SDS011;47726;52.766;6.606;2022-09-09T03:09:00;10.55;;;5.93;;
61806;SDS011;47726;52.766;6.606;2022-09-09T03:11:27;8.88;;;5.68;;
61806;SDS011;47726;52.766;6.606;2022-09-09T03:13:53;8.40;;;5.97;;
61806;SDS011;47726;52.766;6.606;2022-09-09T03:16:21;8.85;;;6.20;;
61806;SDS011;47726;52.766;6.606;2022-09-09T03:18:47;10.20;;;6.57;;
61806;SDS011;47726;52.766;6.606;2022-09-09T03:21:13;10.38;;;7.05;;
61806;SDS011;47726;52.766;6.606;2022-09-09T03:23:39;8.55;;;6.05;;
61806;SDS011;47726;52.766;6.606;2022-09-09T03:26:05;8.75;;;6.18;;
61806;SDS011;47726;52.766;6.606;2022-09-09T03:28:31;9.82;;;6.45;;
61806;SDS011;47726;52.766;6.606;2022-09-09T03:31:00;10.40;;;6.70;;
61806;SDS011;47726;52.766;6.606;2022-09-09T03:33:27;8.02;;;5.72;;
61806;SDS011;47726;52.766;6.606;2022-09-09T03:35:53;7.65;;;5.50;;
61806;SDS011;47726;52.766;6.606;2022-09-09T03:38:21;9.80;;;5.70;;
61806;SDS011;47726;52.766;6.606;2022-09-09T03:40:53;9.93;;;6.20;;
61806;SDS011;47726;52.766;6.606;2022-09-09T03:43:21;8.10;;;5.47;;
61806;SDS011;47726;52.766;6.606;2022-09-09T03:45:47;9.43;;;5.00;;
61806;SDS011;47726;52.766;6.606;2022-09-09T03:48:13;9.07;;;5.00;;
61806;SDS011;47726;52.766;6.606;2022-09-09T03:50:44;8.20;;;5.28;;
61806;SDS011;47726;52.766;6.606;2022-09-09T03:53:14;7.82;;;5.70;;
61806;SDS011;47726;52.766;6.606;2022-09-09T03:55:44;7.90;;;5.60;;
61806;SDS011;47726;52.766;6.606;2022-09-09T03:58:15;6.90;;;4.75;;
61806;SDS011;47726;52.766;6.606;2022-09-09T04:00:44;10.13;;;5.78;;
61806;SDS011;47726;52.766;6.606;2022-09-09T04:03:18;10.02;;;5.80;;
61806;SDS011;47726;52.766;6.606;2022-09-09T04:05:44;9.75;;;6.10;;
61806;SDS011;47726;52.766;6.606;2022-09-09T04:08:09;9.63;;;6.82;;
61806;SDS011;47726;52.766;6.606;2022-09-09T04:10:36;9.18;;;6.68;;
61806;SDS011;47726;52.766;6.606;2022-09-09T04:13:02;9.20;;;6.28;;
61806;SDS011;47726;52.766;6.606;2022-09-09T04:15:29;9.23;;;7.30;;
61806;SDS011;47726;52.766;6.606;2022-09-09T04:17:55;10.70;;;7.50;;
61806;SDS011;47726;52.766;6.606;2022-09-09T04:20:21;10.25;;;6.72;;
61806;SDS011;47726;52.766;6.606;2022-09-09T04:22:47;11.48;;;7.70;;
61806;SDS011;47726;52.766;6.606;2022-09-09T04:25:13;11.13;;;7.72;;
61806;SDS011;47726;52.766;6.606;2022-09-09T04:27:39;9.82;;;7.10;;
61806;SDS011;47726;52.766;6.606;2022-09-09T04:30:05;9.95;;;7.20;;
61806;SDS011;47726;52.766;6.606;2022-09-09T04:32:35;10.70;;;7.38;;
61806;SDS011;47726;52.766;6.606;2022-09-09T04:35:02;9.43;;;7.47;;
61806;SDS011;47726;52.766;6.606;2022-09-09T04:37:28;9.50;;;7.80;;
61806;SDS011;47726;52.766;6.606;2022-09-09T04:39:53;10.25;;;7.20;;
61806;SDS011;47726;52.766;6.606;2022-09-09T04:42:19;12.68;;;7.53;;
61806;SDS011;47726;52.766;6.606;2022-09-09T04:44:44;9.77;;;7.10;;
61806;SDS011;47726;52.766;6.606;2022-09-09T04:47:10;9.57;;;7.07;;
61806;SDS011;47726;52.766;6.606;2022-09-09T04:49:36;9.98;;;7.15;;
61806;SDS011;47726;52.766;6.606;2022-09-09T04:52:02;9.73;;;6.80;;
61806;SDS011;47726;52.766;6.606;2022-09-09T04:54:28;9.35;;;7.15;;
61806;SDS011;47726;52.766;6.606;2022-09-09T04:56:54;9.77;;;7.40;;
61806;SDS011;47726;52.766;6.606;2022-09-09T04:59:20;10.93;;;7.40;;
61806;SDS011;47726;52.766;6.606;2022-09-09T05:01:47;10.20;;;7.00;;
61806;SDS011;47726;52.766;6.606;2022-09-09T05:04:13;10.25;;;7.85;;
61806;SDS011;47726;52.766;6.606;2022-09-09T05:06:40;9.88;;;6.82;;
61806;SDS011;47726;52.766;6.606;2022-09-09T05:09:07;10.43;;;7.40;;
61806;SDS011;47726;52.766;6.606;2022-09-09T05:11:33;10.98;;;7.10;;
61806;SDS011;47726;52.766;6.606;2022-09-09T05:14:00;7.30;;;6.35;;
61806;SDS011;47726;52.766;6.606;2022-09-09T05:16:26;8.60;;;6.95;;
61806;SDS011;47726;52.766;6.606;2022-09-09T05:18:52;10.38;;;7.25;;
61806;SDS011;47726;52.766;6.606;2022-09-09T05:21:18;9.73;;;7.35;;
61806;SDS011;47726;52.766;6.606;2022-09-09T05:23:45;9.10;;;6.57;;
61806;SDS011;47726;52.766;6.606;2022-09-09T05:26:12;11.50;;;7.55;;
61806;SDS011;47726;52.766;6.606;2022-09-09T05:28:39;9.32;;;6.78;;
61806;SDS011;47726;52.766;6.606;2022-09-09T05:31:06;8.60;;;6.70;;
61806;SDS011;47726;52.766;6.606;2022-09-09T05:33:33;8.27;;;6.38;;
61806;SDS011;47726;52.766;6.606;2022-09-09T05:36:01;10.57;;;7.25;;
61806;SDS011;47726;52.766;6.606;2022-09-09T05:38:30;9.43;;;7.00;;
61806;SDS011;47726;52.766;6.606;2022-09-09T05:40:57;9.90;;;6.70;;
61806;SDS011;47726;52.766;6.606;2022-09-09T05:43:23;9.20;;;6.55;;
61806;SDS011;47726;52.766;6.606;2022-09-09T05:45:58;9.20;;;7.05;;
61806;SDS011;47726;52.766;6.606;2022-09-09T05:48:33;9.05;;;7.00;;
61806;SDS011;47726;52.766;6.606;2022-09-09T05:50:59;8.48;;;6.72;;
61806;SDS011;47726;52.766;6.606;2022-09-09T05:53:26;8.68;;;6.65;;
61806;SDS011;47726;52.766;6.606;2022-09-09T05:55:59;10.43;;;7.03;;
61806;SDS011;47726;52.766;6.606;2022-09-09T05:58:26;8.32;;;6.78;;
61806;SDS011;47726;52.766;6.606;2022-09-09T06:00:52;8.77;;;6.57;;
61806;SDS011;47726;52.766;6.606;2022-09-09T06:03:19;10.20;;;6.70;;
61806;SDS011;47726;52.766;6.606;2022-09-09T06:05:56;8.80;;;6.68;;
61806;SDS011;47726;52.766;6.606;2022-09-09T06:08:25;10.35;;;6.50;;
61806;SDS011;47726;52.766;6.606;2022-09-09T06:10:51;9.75;;;6.43;;
61806;SDS011;47726;52.766;6.606;2022-09-09T06:13:17;9.13;;;6.43;;
61806;SDS011;47726;52.766;6.606;2022-09-09T06:15:50;8.30;;;6.30;;
61806;SDS011;47726;52.766;6.606;2022-09-09T06:18:17;7.72;;;5.90;;
61806;SDS011;47726;52.766;6.606;2022-09-09T06:20:52;9.48;;;6.63;;
61806;SDS011;47726;52.766;6.606;2022-09-09T06:23:22;8.73;;;5.85;;
61806;SDS011;47726;52.766;6.606;2022-09-09T06:25:47;9.50;;;6.38;;
61806;SDS011;47726;52.766;6.606;2022-09-09T06:28:14;8.23;;;5.80;;
61806;SDS011;47726;52.766;6.606;2022-09-09T06:30:40;10.23;;;6.15;;
61806;SDS011;47726;52.766;6.606;2022-09-09T06:33:06;8.85;;;6.32;;
61806;SDS011;47726;52.766;6.606;2022-09-09T06:35:32;8.13;;;6.05;;
61806;SDS011;47726;52.766;6.606;2022-09-09T06:37:57;9.07;;;5.65;;
61806;SDS011;47726;52.766;6.606;2022-09-09T06:40:24;7.88;;;5.93;;
61806;SDS011;47726;52.766;6.606;2022-09-09T06:42:50;7.40;;;5.90;;
61806;SDS011;47726;52.766;6.606;2022-09-09T06:45:15;8.32;;;5.47;;
61806;SDS011;47726;52.766;6.606;2022-09-09T06:47:41;8.40;;;5.72;;
61806;SDS011;47726;52.766;6.606;2022-09-09T06:50:07;11.23;;;5.80;;
61806;SDS011;47726;52.766;6.606;2022-09-09T06:52:33;6.72;;;5.85;;
61806;SDS011;47726;52.766;6.606;2022-09-09T06:54:59;9.15;;;5.32;;
61806;SDS011;47726;52.766;6.606;2022-09-09T06:57:24;7.80;;;5.53;;
61806;SDS011;47726;52.766;6.606;2022-09-09T06:59:50;7.18;;;5.60;;
61806;SDS011;47726;52.766;6.606;2022-09-09T07:02:16;7.80;;;5.70;;
61806;SDS011;47726;52.766;6.606;2022-09-09T07:04:41;8.30;;;5.68;;
61806;SDS011;47726;52.766;6.606;2022-09-09T07:07:08;9.30;;;5.63;;
61806;SDS011;47726;52.766;6.606;2022-09-09T07:09:34;8.82;;;5.53;;
61806;SDS011;47726;52.766;6.606;2022-09-09T07:12:00;8.18;;;5.35;;
61806;SDS011;47726;52.766;6.606;2022-09-09T07:14:26;12.07;;;5.95;;
61806;SDS011;47726;52.766;6.606;2022-09-09T07:16:52;8.70;;;5.68;;
61806;SDS011;47726;52.766;6.606;2022-09-09T07:19:17;9.70;;;5.75;;
61806;SDS011;47726;52.766;6.606;2022-09-09T07:21:43;8.43;;;5.60;;
61806;SDS011;47726;52.766;6.606;2022-09-09T07:24:09;9.43;;;5.65;;
61806;SDS011;47726;52.766;6.606;2022-09-09T07:26:36;9.55;;;5.72;;
61806;SDS011;47726;52.766;6.606;2022-09-09T07:29:03;7.90;;;5.80;;
61806;SDS011;47726;52.766;6.606;2022-09-09T07:31:33;9.10;;;5.70;;
61806;SDS011;47726;52.766;6.606;2022-09-09T07:34:01;7.45;;;5.32;;
61806;SDS011;47726;52.766;6.606;2022-09-09T07:36:29;9.80;;;5.60;;
61806;SDS011;47726;52.766;6.606;2022-09-09T07:38:57;9.68;;;5.28;;
61806;SDS011;47726;52.766;6.606;2022-09-09T07:43:55;9.02;;;5.35;;
61806;SDS011;47726;52.766;6.606;2022-09-09T07:46:22;10.55;;;5.82;;
61806;SDS011;47726;52.766;6.606;2022-09-09T07:48:51;9.07;;;5.50;;
61806;SDS011;47726;52.766;6.606;2022-09-09T07:51:20;7.82;;;5.25;;
61806;SDS011;47726;52.766;6.606;2022-09-09T07:53:51;8.52;;;5.25;;
61806;SDS011;47726;52.766;6.606;2022-09-09T07:56:18;10.00;;;5.30;;
61806;SDS011;47726;52.766;6.606;2022-09-09T07:58:48;11.93;;;5.47;;
61806;SDS011;47726;52.766;6.606;2022-09-09T08:01:19;7.32;;;5.00;;
61806;SDS011;47726;52.766;6.606;2022-09-09T08:03:52;11.20;;;5.28;;
61806;SDS011;47726;52.766;6.606;2022-09-09T08:06:30;10.32;;;5.18;;
61806;SDS011;47726;52.766;6.606;2022-09-09T08:08:58;7.85;;;5.13;;
61806;SDS011;47726;52.766;6.606;2022-09-09T08:11:24;7.75;;;5.10;;
61806;SDS011;47726;52.766;6.606;2022-09-09T08:13:52;9.32;;;5.40;;
61806;SDS011;47726;52.766;6.606;2022-09-09T08:16:21;9.93;;;5.45;;
61806;SDS011;47726;52.766;6.606;2022-09-09T08:18:49;12.43;;;5.63;;
61806;SDS011;47726;52.766;6.606;2022-09-09T08:21:16;8.98;;;4.95;;
61806;SDS011;47726;52.766;6.606;2022-09-09T08:23:44;10.77;;;4.82;;
61806;SDS011;47726;52.766;6.606;2022-09-09T08:26:12;9.93;;;4.90;;
61806;SDS011;47726;52.766;6.606;2022-09-09T08:28:40;9.18;;;4.93;;
61806;SDS011;47726;52.766;6.606;2022-09-09T08:31:07;8.93;;;5.05;;
61806;SDS011;47726;52.766;6.606;2022-09-09T08:33:34;7.22;;;4.45;;
61806;SDS011;47726;52.766;6.606;2022-09-09T08:36:01;10.07;;;4.63;;
61806;SDS011;47726;52.766;6.606;2022-09-09T08:38:27;8.48;;;4.38;;
61806;SDS011;47726;52.766;6.606;2022-09-09T08:40:53;13.13;;;4.30;;
61806;SDS011;47726;52.766;6.606;2022-09-09T08:43:27;8.20;;;3.70;;
61806;SDS011;47726;52.766;6.606;2022-09-09T08:46:38;11.73;;;4.30;;
61806;SDS011;47726;52.766;6.606;2022-09-09T08:48:55;11.70;;;3.95;;
61806;SDS011;47726;52.766;6.606;2022-09-09T08:51:27;10.18;;;4.00;;
61806;SDS011;47726;52.766;6.606;2022-09-09T08:53:55;10.93;;;4.40;;
61806;SDS011;47726;52.766;6.606;2022-09-09T08:56:25;9.93;;;3.75;;
61806;SDS011;47726;52.766;6.606;2022-09-09T08:58:53;9.95;;;3.92;;
61806;SDS011;47726;52.766;6.606;2022-09-09T09:04:31;8.68;;;3.65;;
61806;SDS011;47726;52.766;6.606;2022-09-09T09:10:04;11.02;;;3.60;;
61806;SDS011;47726;52.766;6.606;2022-09-09T09:12:40;8.88;;;3.17;;
61806;SDS011;47726;52.766;6.606;2022-09-09T09:15:14;9.10;;;3.55;;
61806;SDS011;47726;52.766;6.606;2022-09-09T09:20:16;10.65;;;3.25;;
61806;SDS011;47726;52.766;6.606;2022-09-09T09:22:48;8.82;;;2.83;;
61806;SDS011;47726;52.766;6.606;2022-09-09T09:27:59;10.20;;;3.03;;
61806;SDS011;47726;52.766;6.606;2022-09-09T09:30:36;9.40;;;2.72;;
61806;SDS011;47726;52.766;6.606;2022-09-09T09:36:11;10.02;;;2.80;;
61806;SDS011;47726;52.766;6.606;2022-09-09T09:38:40;11.98;;;2.90;;
61806;SDS011;47726;52.766;6.606;2022-09-09T09:41:30;8.65;;;2.63;;
61806;SDS011;47726;52.766;6.606;2022-09-09T09:44:20;8.18;;;2.70;;
61806;SDS011;47726;52.766;6.606;2022-09-09T09:49:14;7.68;;;2.80;;
61806;SDS011;47726;52.766;6.606;2022-09-09T09:51:39;10.93;;;2.90;;
61806;SDS011;47726;52.766;6.606;2022-09-09T09:56:43;8.20;;;2.42;;
61806;SDS011;47726;52.766;6.606;2022-09-09T10:01:54;9.57;;;2.67;;
61806;SDS011;47726;52.766;6.606;2022-09-09T10:04:22;9.32;;;2.60;;
61806;SDS011;47726;52.766;6.606;2022-09-09T10:06:49;9.18;;;2.85;;
61806;SDS011;47726;52.766;6.606;2022-09-09T10:14:21;10.50;;;2.63;;
61806;SDS011;47726;52.766;6.606;2022-09-09T10:19:34;10.98;;;2.90;;
61806;SDS011;47726;52.766;6.606;2022-09-09T10:24:44;9.15;;;2.17;;
61806;SDS011;47726;52.766;6.606;2022-09-09T10:30:23;8.82;;;2.42;;
61806;SDS011;47726;52.766;6.606;2022-09-09T10:33:02;8.50;;;2.40;;
61806;SDS011;47726;52.766;6.606;2022-09-09T10:38:30;7.78;;;2.40;;
61806;SDS011;47726;52.766;6.606;2022-09-09T10:44:15;6.55;;;2.20;;
61806;SDS011;47726;52.766;6.606;2022-09-09T10:47:11;9.68;;;2.08;;
61806;SDS011;47726;52.766;6.606;2022-09-09T10:55:46;7.47;;;2.38;;
61806;SDS011;47726;52.766;6.606;2022-09-09T10:58:28;5.63;;;2.03;;
61806;SDS011;47726;52.766;6.606;2022-09-09T11:01:18;5.45;;;1.80;;
61806;SDS011;47726;52.766;6.606;2022-09-09T11:03:54;7.60;;;2.28;;
61806;SDS011;47726;52.766;6.606;2022-09-09T11:06:29;7.72;;;2.03;;
61806;SDS011;47726;52.766;6.606;2022-09-09T11:09:00;8.80;;;2.40;;
61806;SDS011;47726;52.766;6.606;2022-09-09T11:14:12;5.47;;;2.08;;
61806;SDS011;47726;52.766;6.606;2022-09-09T11:19:42;6.45;;;2.20;;
61806;SDS011;47726;52.766;6.606;2022-09-09T11:40:46;8.73;;;2.80;;
61806;SDS011;47726;52.766;6.606;2022-09-09T11:43:32;7.93;;;2.40;;
61806;SDS011;47726;52.766;6.606;2022-09-09T11:46:14;6.80;;;2.20;;
61806;SDS011;47726;52.766;6.606;2022-09-09T11:48:44;7.68;;;2.50;;
61806;SDS011;47726;52.766;6.606;2022-09-09T11:53:49;7.57;;;2.00;;
61806;SDS011;47726;52.766;6.606;2022-09-09T11:56:25;5.80;;;2.03;;
61806;SDS011;47726;52.766;6.606;2022-09-09T11:59:05;7.68;;;2.00;;
61806;SDS011;47726;52.766;6.606;2022-09-09T12:01:44;5.78;;;1.70;;
61806;SDS011;47726;52.766;6.606;2022-09-09T12:06:53;10.23;;;2.28;;
61806;SDS011;47726;52.766;6.606;2022-09-09T12:17:52;5.95;;;1.60;;
61806;SDS011;47726;52.766;6.606;2022-09-09T12:23:12;9.98;;;2.22;;
61806;SDS011;47726;52.766;6.606;2022-09-09T12:25:57;4.78;;;1.63;;
61806;SDS011;47726;52.766;6.606;2022-09-09T12:28:27;7.90;;;1.80;;
61806;SDS011;47726;52.766;6.606;2022-09-09T12:31:26;7.30;;;2.00;;
61806;SDS011;47726;52.766;6.606;2022-09-09T12:34:13;8.30;;;2.03;;
61806;SDS011;47726;52.766;6.606;2022-09-09T12:36:55;7.57;;;1.83;;
61806;SDS011;47726;52.766;6.606;2022-09-09T12:39:33;6.65;;;2.08;;
61806;SDS011;47726;52.766;6.606;2022-09-09T12:42:15;6.75;;;1.80;;
61806;SDS011;47726;52.766;6.606;2022-09-09T12:44:50;6.60;;;1.92;;
61806;SDS011;47726;52.766;6.606;2022-09-09T12:47:29;6.75;;;1.80;;
61806;SDS011;47726;52.766;6.606;2022-09-09T12:52:51;11.02;;;2.05;;
61806;SDS011;47726;52.766;6.606;2022-09-09T12:55:24;6.05;;;1.95;;
61806;SDS011;47726;52.766;6.606;2022-09-09T12:57:55;6.18;;;1.77;;
61806;SDS011;47726;52.766;6.606;2022-09-09T13:00:21;7.53;;;2.28;;
61806;SDS011;47726;52.766;6.606;2022-09-09T13:02:53;5.20;;;1.85;;
61806;SDS011;47726;52.766;6.606;2022-09-09T13:05:24;6.35;;;1.77;;
61806;SDS011;47726;52.766;6.606;2022-09-09T13:08:00;6.50;;;1.67;;
61806;SDS011;47726;52.766;6.606;2022-09-09T13:10:31;6.22;;;1.80;;
61806;SDS011;47726;52.766;6.606;2022-09-09T13:13:15;7.60;;;1.80;;
61806;SDS011;47726;52.766;6.606;2022-09-09T13:15:52;6.75;;;1.80;;
61806;SDS011;47726;52.766;6.606;2022-09-09T13:18:21;7.10;;;1.98;;
61806;SDS011;47726;52.766;6.606;2022-09-09T13:20:49;6.85;;;1.65;;
61806;SDS011;47726;52.766;6.606;2022-09-09T13:23:16;6.47;;;1.70;;
61806;SDS011;47726;52.766;6.606;2022-09-09T13:25:58;4.05;;;1.42;;
61806;SDS011;47726;52.766;6.606;2022-09-09T13:28:26;8.02;;;1.73;;
61806;SDS011;47726;52.766;6.606;2022-09-09T13:30:59;4.28;;;1.70;;
61806;SDS011;47726;52.766;6.606;2022-09-09T13:33:31;5.75;;;1.70;;
61806;SDS011;47726;52.766;6.606;2022-09-09T13:36:03;5.43;;;1.95;;
61806;SDS011;47726;52.766;6.606;2022-09-09T13:38:32;4.55;;;1.60;;
61806;SDS011;47726;52.766;6.606;2022-09-09T13:41:08;5.68;;;1.70;;
61806;SDS011;47726;52.766;6.606;2022-09-09T13:43:41;7.05;;;1.73;;
61806;SDS011;47726;52.766;6.606;2022-09-09T13:46:26;6.05;;;1.60;;
61806;SDS011;47726;52.766;6.606;2022-09-09T13:54:02;4.60;;;1.83;;
61806;SDS011;47726;52.766;6.606;2022-09-09T13:56:30;4.80;;;1.50;;
61806;SDS011;47726;52.766;6.606;2022-09-09T13:58:56;7.80;;;2.15;;
61806;SDS011;47726;52.766;6.606;2022-09-09T14:01:23;4.70;;;1.80;;
61806;SDS011;47726;52.766;6.606;2022-09-09T14:03:48;3.92;;;1.70;;
61806;SDS011;47726;52.766;6.606;2022-09-09T14:06:14;4.47;;;1.45;;
61806;SDS011;47726;52.766;6.606;2022-09-09T14:08:40;3.50;;;1.50;;
61806;SDS011;47726;52.766;6.606;2022-09-09T14:11:06;3.83;;;1.42;;
61806;SDS011;47726;52.766;6.606;2022-09-09T14:13:35;4.57;;;1.50;;
61806;SDS011;47726;52.766;6.606;2022-09-09T14:16:02;3.17;;;1.38;;
61806;SDS011;47726;52.766;6.606;2022-09-09T14:18:28;3.80;;;1.27;;
61806;SDS011;47726;52.766;6.606;2022-09-09T14:20:54;4.72;;;1.40;;
61806;SDS011;47726;52.766;6.606;2022-09-09T14:23:19;4.20;;;1.67;;
61806;SDS011;47726;52.766;6.606;2022-09-09T14:25:47;3.88;;;1.58;;
61806;SDS011;47726;52.766;6.606;2022-09-09T14:28:14;5.57;;;1.73;;
61806;SDS011;47726;52.766;6.606;2022-09-09T14:30:40;1.92;;;1.40;;
61806;SDS011;47726;52.766;6.606;2022-09-09T14:33:08;3.97;;;1.63;;
61806;SDS011;47726;52.766;6.606;2022-09-09T14:35:36;3.33;;;1.58;;
61806;SDS011;47726;52.766;6.606;2022-09-09T14:38:02;6.30;;;1.80;;
61806;SDS011;47726;52.766;6.606;2022-09-09T14:40:28;4.38;;;1.60;;
61806;SDS011;47726;52.766;6.606;2022-09-09T14:42:54;8.63;;;2.20;;
61806;SDS011;47726;52.766;6.606;2022-09-09T14:45:21;4.28;;;1.63;;
61806;SDS011;47726;52.766;6.606;2022-09-09T14:47:49;5.00;;;1.60;;
61806;SDS011;47726;52.766;6.606;2022-09-09T14:50:15;4.07;;;1.80;;
61806;SDS011;47726;52.766;6.606;2022-09-09T14:52:41;3.17;;;1.58;;
61806;SDS011;47726;52.766;6.606;2022-09-09T14:55:07;3.35;;;1.50;;
61806;SDS011;47726;52.766;6.606;2022-09-09T14:57:36;4.50;;;1.65;;
61806;SDS011;47726;52.766;6.606;2022-09-09T15:00:03;4.20;;;1.60;;
61806;SDS011;47726;52.766;6.606;2022-09-09T15:02:30;5.05;;;1.70;;
61806;SDS011;47726;52.766;6.606;2022-09-09T15:04:56;3.33;;;1.60;;
61806;SDS011;47726;52.766;6.606;2022-09-09T15:07:24;3.20;;;1.60;;
61806;SDS011;47726;52.766;6.606;2022-09-09T15:09:52;3.42;;;1.70;;
61806;SDS011;47726;52.766;6.606;2022-09-09T15:12:18;3.38;;;1.65;;
61806;SDS011;47726;52.766;6.606;2022-09-09T15:14:44;4.32;;;1.65;;
61806;SDS011;47726;52.766;6.606;2022-09-09T15:17:10;4.82;;;1.83;;
61806;SDS011;47726;52.766;6.606;2022-09-09T15:19:36;3.45;;;1.77;;
61806;SDS011;47726;52.766;6.606;2022-09-09T15:22:02;3.45;;;1.70;;
61806;SDS011;47726;52.766;6.606;2022-09-09T15:24:32;5.25;;;1.80;;
61806;SDS011;47726;52.766;6.606;2022-09-09T15:26:57;4.43;;;1.80;;
61806;SDS011;47726;52.766;6.606;2022-09-09T15:29:23;3.28;;;1.70;;
61806;SDS011;47726;52.766;6.606;2022-09-09T15:31:49;5.22;;;1.90;;
61806;SDS011;47726;52.766;6.606;2022-09-09T15:34:15;7.38;;;2.30;;
61806;SDS011;47726;52.766;6.606;2022-09-09T15:36:42;7.13;;;2.47;;
61806;SDS011;47726;52.766;6.606;2022-09-09T15:39:09;4.47;;;2.30;;
61806;SDS011;47726;52.766;6.606;2022-09-09T15:41:38;4.25;;;2.10;;
61806;SDS011;47726;52.766;6.606;2022-09-09T15:44:04;5.57;;;2.00;;
61806;SDS011;47726;52.766;6.606;2022-09-09T15:48:58;4.25;;;2.00;;
61806;SDS011;47726;52.766;6.606;2022-09-09T15:51:35;4.15;;;1.80;;
61806;SDS011;47726;52.766;6.606;2022-09-09T15:54:02;5.05;;;1.80;;
61806;SDS011;47726;52.766;6.606;2022-09-09T15:56:28;4.78;;;2.00;;
61806;SDS011;47726;52.766;6.606;2022-09-09T15:59:01;5.28;;;2.15;;
61806;SDS011;47726;52.766;6.606;2022-09-09T16:01:30;4.82;;;1.88;;
61806;SDS011;47726;52.766;6.606;2022-09-09T16:03:57;4.22;;;1.95;;
61806;SDS011;47726;52.766;6.606;2022-09-09T16:06:25;3.47;;;1.77;;
61806;SDS011;47726;52.766;6.606;2022-09-09T16:08:53;4.97;;;1.95;;
61806;SDS011;47726;52.766;6.606;2022-09-09T16:11:20;5.13;;;2.08;;
61806;SDS011;47726;52.766;6.606;2022-09-09T16:13:47;5.55;;;2.47;;
61806;SDS011;47726;52.766;6.606;2022-09-09T16:16:14;5.80;;;2.53;;
61806;SDS011;47726;52.766;6.606;2022-09-09T16:18:41;5.43;;;2.40;;
61806;SDS011;47726;52.766;6.606;2022-09-09T16:21:13;5.93;;;2.53;;
61806;SDS011;47726;52.766;6.606;2022-09-09T16:23:40;6.22;;;2.50;;
61806;SDS011;47726;52.766;6.606;2022-09-09T16:26:06;5.28;;;2.35;;
61806;SDS011;47726;52.766;6.606;2022-09-09T16:28:35;4.20;;;2.10;;
61806;SDS011;47726;52.766;6.606;2022-09-09T16:31:03;7.78;;;2.42;;
61806;SDS011;47726;52.766;6.606;2022-09-09T16:33:30;6.75;;;2.47;;
61806;SDS011;47726;52.766;6.606;2022-09-09T16:35:56;7.35;;;2.22;;
61806;SDS011;47726;52.766;6.606;2022-09-09T16:38:22;5.65;;;2.40;;
61806;SDS011;47726;52.766;6.606;2022-09-09T16:40:47;5.40;;;2.50;;
61806;SDS011;47726;52.766;6.606;2022-09-09T16:43:15;6.13;;;2.60;;
61806;SDS011;47726;52.766;6.606;2022-09-09T16:45:41;8.20;;;2.88;;
61806;SDS011;47726;52.766;6.606;2022-09-09T16:48:08;7.13;;;2.60;;
61806;SDS011;47726;52.766;6.606;2022-09-09T16:50:33;6.50;;;2.72;;
61806;SDS011;47726;52.766;6.606;2022-09-09T16:52:59;5.68;;;2.53;;
61806;SDS011;47726;52.766;6.606;2022-09-09T16:55:27;6.35;;;2.70;;
61806;SDS011;47726;52.766;6.606;2022-09-09T16:57:53;7.45;;;3.05;;
61806;SDS011;47726;52.766;6.606;2022-09-09T17:00:18;8.18;;;2.80;;
61806;SDS011;47726;52.766;6.606;2022-09-09T17:02:44;5.97;;;2.63;;
61806;SDS011;47726;52.766;6.606;2022-09-09T17:05:10;7.78;;;2.35;;
61806;SDS011;47726;52.766;6.606;2022-09-09T17:07:36;6.70;;;2.58;;
61806;SDS011;47726;52.766;6.606;2022-09-09T17:10:01;4.45;;;2.00;;
61806;SDS011;47726;52.766;6.606;2022-09-09T17:12:27;5.80;;;1.90;;
61806;SDS011;47726;52.766;6.606;2022-09-09T17:14:52;4.78;;;1.90;;
61806;SDS011;47726;52.766;6.606;2022-09-09T17:17:20;4.30;;;1.90;;
61806;SDS011;47726;52.766;6.606;2022-09-09T17:19:46;5.88;;;2.00;;
61806;SDS011;47726;52.766;6.606;2022-09-09T17:22:12;5.95;;;2.15;;